createdAt,value
2023-03-23T15:59:01.874Z,13.01
2023-03-23T16:04:17.240Z,13.13
2023-03-23T16:09:21.086Z,13.00
2023-03-23T16:14:23.194Z,12.99
2023-03-23T16:19:25.318Z,12.83
2023-03-23T16:24:27.305Z,13.35
2023-03-23T16:34:37.141Z,12.87
2023-03-23T16:39:39.227Z,12.83
2023-03-23T16:44:41.238Z,13.24
2023-03-23T16:49:43.273Z,12.83
2023-03-23T16:54:45.211Z,13.11
2023-03-23T16:59:47.254Z,12.77
2023-03-23T17:04:49.237Z,13.14
2023-03-23T17:09:51.474Z,12.64
2023-03-23T17:14:53.524Z,12.59
2023-03-23T17:19:56.456Z,12.95
2023-03-23T17:24:58.867Z,12.55
2023-03-23T17:30:01.026Z,12.49
2023-03-23T17:35:05.570Z,12.46
2023-03-23T17:40:10.356Z,12.26
2023-03-23T17:45:12.563Z,12.35
2023-03-23T17:50:14.643Z,12.37
2023-03-23T17:55:16.954Z,12.76
2023-03-23T18:00:19.855Z,12.34
2023-03-23T18:05:21.962Z,12.28
2023-03-23T18:10:24.045Z,12.35
2023-03-23T18:15:42.217Z,12.80
2023-03-23T18:20:46.164Z,12.54
2023-03-23T18:25:48.218Z,12.41
2023-03-23T18:30:50.206Z,12.81
2023-03-23T18:36:00.425Z,12.55
2023-03-23T18:41:06.745Z,12.45
2023-03-23T18:46:09.129Z,12.35
2023-03-23T18:51:12.010Z,12.30
2023-03-23T18:56:16.784Z,12.21
2023-03-23T19:01:19.237Z,12.17
2023-03-23T19:06:27.474Z,12.19
2023-03-23T19:11:30.123Z,12.05
2023-03-23T19:16:35.802Z,12.03
2023-03-23T19:21:40.292Z,12.01
2023-03-23T19:26:44.920Z,11.99
2023-03-23T19:31:47.771Z,11.92
2023-03-23T19:36:55.121Z,11.91
2023-03-23T19:42:01.888Z,11.84
2023-03-23T19:47:04.262Z,11.82
2023-03-23T19:52:12.519Z,11.83
2023-03-23T19:57:15.635Z,11.82
2023-03-23T20:02:17.889Z,11.74
2023-03-23T20:07:21.378Z,11.72
2023-03-23T20:12:24.118Z,11.71
2023-03-23T20:17:26.355Z,11.67
2023-03-23T20:22:28.680Z,11.64
2023-03-23T20:27:31.120Z,11.63
2023-03-23T20:32:33.886Z,11.63
2023-03-23T20:37:40.740Z,11.66
2023-03-23T20:42:44.157Z,11.60
2023-03-23T20:47:46.581Z,11.52
2023-03-23T20:52:48.693Z,11.50
2023-03-23T20:57:50.849Z,11.48
2023-03-23T21:02:54.267Z,11.41
2023-03-23T21:07:58.068Z,11.40
2023-03-23T21:13:00.373Z,11.36
2023-03-23T21:18:03.360Z,11.35
2023-03-23T21:23:06.059Z,11.33
2023-03-23T21:28:08.983Z,11.34
2023-03-23T21:33:13.083Z,11.29
2023-03-23T21:38:15.186Z,11.30
2023-03-23T21:43:17.221Z,11.70
2023-03-23T21:48:22.039Z,11.28
2023-03-23T21:53:25.643Z,11.20
2023-03-23T21:58:27.887Z,11.20
2023-03-23T22:03:35.348Z,11.24
2023-03-23T22:08:39.094Z,11.18
2023-03-23T22:13:42.283Z,11.10
2023-03-23T22:18:46.280Z,11.14
2023-03-23T22:23:48.963Z,11.12
2023-03-23T22:28:52.167Z,11.09
2023-03-23T22:33:55.755Z,11.09
2023-03-23T22:38:58.000Z,11.07
2023-03-23T22:44:00.920Z,11.08
2023-03-23T22:49:03.173Z,11.10
2023-03-23T22:54:06.493Z,11.03
2023-03-23T22:59:09.266Z,10.98
2023-03-23T23:04:11.452Z,10.92
2023-03-23T23:09:13.650Z,10.91
2023-03-23T23:14:15.946Z,10.92
2023-03-23T23:19:18.075Z,10.94
2023-03-23T23:24:20.504Z,11.00
2023-03-23T23:29:22.633Z,10.95
2023-03-23T23:34:25.359Z,10.96
2023-03-23T23:39:27.863Z,11.03
2023-03-23T23:44:29.921Z,11.00
2023-03-23T23:49:34.351Z,10.96
2023-03-23T23:54:37.677Z,10.94
2023-03-23T23:59:39.854Z,10.99
